createdAt,value
2018-12-23T00:01:54.496Z,5.07
2018-12-23T00:04:58.704Z,5.40
2018-12-23T00:08:02.928Z,4.57
2018-12-23T00:11:07.142Z,4.40
2018-12-23T00:14:11.412Z,3.90
2018-12-23T00:17:15.607Z,4.37
2018-12-23T00:20:19.856Z,2.93
2018-12-23T00:23:24.064Z,3.03
2018-12-23T00:26:28.383Z,2.00
2018-12-23T00:29:32.600Z,1.60
2018-12-23T00:32:36.863Z,1.90
2018-12-23T00:35:41.076Z,1.97
2018-12-23T00:38:45.475Z,1.60
2018-12-23T00:41:49.687Z,1.67
2018-12-23T00:44:53.987Z,1.30
2018-12-23T00:47:58.183Z,1.20
2018-12-23T00:51:02.459Z,1.73
2018-12-23T00:54:06.767Z,1.00
2018-12-23T00:57:11.091Z,0.90
2018-12-23T01:00:15.458Z,0.70
2018-12-23T01:03:19.693Z,0.80
2018-12-23T01:06:25.164Z,0.90
2018-12-23T01:09:29.483Z,0.70
2018-12-23T01:12:33.847Z,0.93
2018-12-23T01:15:38.079Z,1.50
2018-12-23T01:18:42.283Z,1.00
2018-12-23T01:21:46.486Z,1.63
2018-12-23T01:24:50.720Z,1.50
2018-12-23T01:27:54.963Z,4.30
2018-12-23T01:30:59.199Z,4.83
2018-12-23T01:34:05.305Z,4.97
2018-12-23T01:37:09.655Z,5.63
2018-12-23T01:40:13.995Z,3.80
2018-12-23T01:43:18.283Z,1.60
2018-12-23T01:46:22.603Z,1.60
2018-12-23T01:49:26.931Z,0.90
2018-12-23T01:52:31.263Z,0.90
2018-12-23T01:55:35.692Z,1.20
2018-12-23T01:58:39.911Z,1.00
2018-12-23T02:01:44.278Z,1.00
2018-12-23T02:04:48.507Z,1.10
2018-12-23T02:07:52.782Z,1.30
2018-12-23T02:10:57.025Z,1.03
2018-12-23T02:14:01.436Z,1.20
2018-12-23T02:17:05.818Z,0.77
2018-12-23T02:20:10.271Z,1.10
2018-12-23T02:23:14.559Z,1.27
2018-12-23T02:26:18.858Z,1.10
2018-12-23T02:29:23.078Z,1.20
2018-12-23T02:32:27.363Z,1.00
2018-12-23T02:35:31.593Z,1.10
2018-12-23T02:38:35.823Z,1.20
2018-12-23T02:41:40.225Z,1.50
2018-12-23T02:44:44.449Z,1.40
2018-12-23T02:47:48.683Z,1.47
2018-12-23T02:50:52.955Z,1.63
2018-12-23T02:53:57.243Z,1.80
2018-12-23T02:57:01.463Z,2.10
2018-12-23T03:00:06.451Z,2.80
2018-12-23T03:03:10.744Z,2.53
2018-12-23T03:06:15.343Z,3.47
2018-12-23T03:09:19.625Z,2.70
2018-12-23T03:12:23.848Z,2.77
2018-12-23T03:15:28.027Z,2.33
2018-12-23T03:18:32.311Z,2.83
2018-12-23T03:21:36.527Z,2.73
2018-12-23T03:24:40.827Z,3.03
2018-12-23T03:27:45.111Z,2.50
2018-12-23T03:30:49.328Z,2.20
2018-12-23T03:33:53.576Z,3.13
2018-12-23T03:36:57.808Z,2.83
2018-12-23T03:40:02.022Z,2.97
2018-12-23T03:43:06.223Z,3.00
2018-12-23T03:46:10.490Z,2.10
2018-12-23T03:49:14.712Z,2.30
2018-12-23T03:52:19.003Z,2.40
2018-12-23T03:55:23.231Z,2.83
2018-12-23T03:58:27.431Z,2.20
2018-12-23T04:01:31.730Z,1.83
2018-12-23T04:04:36.117Z,1.80
2018-12-23T04:07:40.488Z,1.50
2018-12-23T04:10:44.692Z,2.37
2018-12-23T04:13:48.903Z,1.67
2018-12-23T04:16:53.124Z,1.77
2018-12-23T04:19:57.509Z,1.80
2018-12-23T04:23:01.755Z,1.30
2018-12-23T04:26:06.071Z,1.40
2018-12-23T04:29:10.312Z,1.53
2018-12-23T04:32:14.651Z,2.00
2018-12-23T04:35:19.008Z,2.00
2018-12-23T04:38:23.244Z,1.60
2018-12-23T04:41:27.567Z,1.90
2018-12-23T04:44:31.775Z,1.87
2018-12-23T04:47:36.070Z,1.93
2018-12-23T04:50:40.331Z,1.20
2018-12-23T04:53:44.545Z,1.83
2018-12-23T04:56:48.852Z,1.83
2018-12-23T04:59:53.042Z,1.53
2018-12-23T05:02:57.279Z,2.07
2018-12-23T05:06:01.478Z,1.77
2018-12-23T05:09:07.101Z,1.67
2018-12-23T05:12:11.324Z,1.70
2018-12-23T05:15:15.687Z,2.33
2018-12-23T05:18:19.962Z,1.97
2018-12-23T05:21:24.191Z,2.80
2018-12-23T05:24:28.490Z,2.10
2018-12-23T05:27:32.715Z,2.40
2018-12-23T05:30:36.915Z,2.90
2018-12-23T05:33:41.171Z,2.17
2018-12-23T05:36:52.303Z,2.17
2018-12-23T05:39:51.652Z,2.30
2018-12-23T05:42:55.868Z,2.17
2018-12-23T05:46:00.179Z,2.77
2018-12-23T05:49:04.556Z,2.70
2018-12-23T05:52:08.761Z,2.00
2018-12-23T05:55:12.969Z,2.37
2018-12-23T05:58:17.307Z,2.00
2018-12-23T06:01:21.512Z,1.40
2018-12-23T06:04:25.759Z,1.63
2018-12-23T06:07:29.967Z,1.90
2018-12-23T06:10:34.224Z,1.70
2018-12-23T06:13:38.475Z,2.70
2018-12-23T06:16:42.687Z,1.57
2018-12-23T06:19:46.897Z,1.93
2018-12-23T06:22:51.127Z,2.43
2018-12-23T06:25:55.333Z,1.90
2018-12-23T06:28:59.564Z,3.10
2018-12-23T06:32:03.868Z,2.60
2018-12-23T06:35:08.344Z,2.87
2018-12-23T06:38:12.587Z,2.73
2018-12-23T06:41:18.372Z,2.83
2018-12-23T06:44:22.692Z,3.50
2018-12-23T06:47:26.904Z,2.43
2018-12-23T06:50:31.127Z,1.80
2018-12-23T06:53:35.424Z,2.97
2018-12-23T06:56:39.653Z,2.63
2018-12-23T06:59:43.875Z,1.37
2018-12-23T07:02:48.099Z,1.60
2018-12-23T07:05:52.343Z,1.60
2018-12-23T07:08:56.569Z,1.97
2018-12-23T07:12:00.798Z,1.97
2018-12-23T07:15:05.407Z,1.40
2018-12-23T07:18:09.633Z,1.70
2018-12-23T07:21:13.851Z,1.47
2018-12-23T07:24:18.266Z,1.03
2018-12-23T07:27:22.462Z,1.37
2018-12-23T07:30:26.737Z,1.50
2018-12-23T07:33:30.956Z,1.47
2018-12-23T07:36:35.148Z,1.67
2018-12-23T07:39:39.391Z,1.97
2018-12-23T07:42:43.670Z,1.80
2018-12-23T07:45:47.994Z,2.07
2018-12-23T07:48:52.198Z,2.80
2018-12-23T07:51:56.478Z,2.77
2018-12-23T07:55:00.699Z,1.57
2018-12-23T07:58:04.916Z,1.60
2018-12-23T08:01:09.195Z,1.00
2018-12-23T08:04:13.419Z,1.00
2018-12-23T08:07:17.779Z,1.07
2018-12-23T08:10:22.021Z,1.03
2018-12-23T08:13:26.220Z,0.70
2018-12-23T08:16:30.443Z,1.03
2018-12-23T08:19:34.622Z,0.60
2018-12-23T08:22:38.852Z,0.80
2018-12-23T08:25:43.044Z,0.90
2018-12-23T08:28:47.291Z,1.50
2018-12-23T08:31:51.512Z,1.17
2018-12-23T08:34:55.723Z,1.20
2018-12-23T08:38:00.029Z,1.70
2018-12-23T08:41:04.371Z,3.77
2018-12-23T08:44:08.578Z,5.53
2018-12-23T08:47:12.802Z,3.20
2018-12-23T08:50:17.008Z,6.43
2018-12-23T08:53:21.304Z,5.87
2018-12-23T08:56:25.509Z,8.77
2018-12-23T08:59:29.752Z,8.17
2018-12-23T09:02:33.951Z,7.60
2018-12-23T09:05:38.187Z,8.97
2018-12-23T09:08:42.371Z,28.07
2018-12-23T09:11:46.604Z,8.80
2018-12-23T09:14:50.840Z,3.37
2018-12-23T09:17:55.083Z,3.80
2018-12-23T09:20:59.295Z,2.53
2018-12-23T09:24:03.807Z,2.87
2018-12-23T09:27:08.039Z,2.17
2018-12-23T09:30:12.258Z,1.67
2018-12-23T09:33:16.476Z,1.70
2018-12-23T09:36:20.690Z,1.93
2018-12-23T09:39:24.947Z,1.77
2018-12-23T09:42:29.269Z,1.67
2018-12-23T09:45:33.575Z,1.67
2018-12-23T09:48:37.819Z,2.40
2018-12-23T09:51:42.031Z,2.07
2018-12-23T09:54:46.319Z,2.23
2018-12-23T09:57:50.495Z,1.97
2018-12-23T10:00:54.844Z,1.13
2018-12-23T10:04:00.627Z,1.40
2018-12-23T10:07:04.983Z,1.63
2018-12-23T10:10:09.375Z,7.40
2018-12-23T10:13:13.563Z,3.70
2018-12-23T10:16:17.774Z,1.77
2018-12-23T10:19:21.943Z,2.27
2018-12-23T10:22:26.184Z,1.50
2018-12-23T10:25:30.400Z,1.50
2018-12-23T10:28:34.632Z,1.37
2018-12-23T10:31:38.877Z,1.23
2018-12-23T10:34:43.107Z,1.70
2018-12-23T10:37:47.354Z,1.37
2018-12-23T10:40:51.528Z,1.90
2018-12-23T10:43:55.763Z,1.63
2018-12-23T10:47:00.147Z,2.50
2018-12-23T10:50:04.676Z,1.73
2018-12-23T10:53:08.911Z,1.70
2018-12-23T10:56:13.104Z,1.83
2018-12-23T10:59:17.329Z,1.40
2018-12-23T11:02:21.525Z,1.50
2018-12-23T11:05:25.728Z,1.50
2018-12-23T11:08:29.954Z,2.07
2018-12-23T11:11:34.148Z,5.07
2018-12-23T11:14:38.347Z,4.57
2018-12-23T11:17:42.564Z,3.07
2018-12-23T11:20:46.771Z,2.10
2018-12-23T11:23:51.075Z,2.50
2018-12-23T11:26:55.266Z,2.17
2018-12-23T11:29:59.472Z,1.60
2018-12-23T11:33:03.755Z,2.37
2018-12-23T11:36:08.066Z,1.50
2018-12-23T11:39:12.271Z,1.33
2018-12-23T11:42:16.503Z,1.27
2018-12-23T11:45:20.711Z,1.20
2018-12-23T11:48:24.951Z,1.57
2018-12-23T11:51:29.155Z,1.33
2018-12-23T11:54:33.454Z,1.40
2018-12-23T11:57:37.699Z,1.80
2018-12-23T12:00:41.924Z,2.30
2018-12-23T12:03:46.143Z,2.30
2018-12-23T12:06:50.429Z,1.67
2018-12-23T12:09:54.675Z,1.87
2018-12-23T12:12:58.892Z,1.43
2018-12-23T12:16:03.190Z,1.70
2018-12-23T12:19:07.488Z,1.23
2018-12-23T12:22:11.775Z,1.50
2018-12-23T12:25:15.979Z,1.50
2018-12-23T12:28:20.172Z,1.73
2018-12-23T12:31:24.400Z,1.57
2018-12-23T12:34:28.695Z,2.37
2018-12-23T12:37:33.015Z,1.73
2018-12-23T12:40:37.292Z,3.43
2018-12-23T12:43:41.583Z,4.90
2018-12-23T12:46:45.877Z,3.50
2018-12-23T12:49:50.199Z,4.43
2018-12-23T12:52:54.479Z,3.30
2018-12-23T12:55:58.715Z,3.60
2018-12-23T12:59:02.916Z,4.58
2018-12-23T13:02:07.186Z,2.47
2018-12-23T13:05:11.478Z,3.30
2018-12-23T13:08:15.728Z,3.30
2018-12-23T13:11:20.003Z,2.40
2018-12-23T13:14:24.250Z,2.13
2018-12-23T13:17:28.467Z,2.80
2018-12-23T13:20:32.712Z,2.90
2018-12-23T13:23:36.967Z,2.83
2018-12-23T13:26:41.192Z,4.77
2018-12-23T13:29:45.871Z,7.33
2018-12-23T13:32:50.086Z,6.70
2018-12-23T13:35:54.417Z,3.53
2018-12-23T13:38:58.710Z,10.03
2018-12-23T13:42:25.155Z,15.23
2018-12-23T13:45:50.696Z,49.47
2018-12-23T13:50:25.210Z,20.57
2018-12-23T13:59:51.472Z,30.40
2018-12-23T14:03:25.250Z,20.00
2018-12-23T14:07:39.584Z,31.30
2018-12-23T14:11:15.980Z,63.00
2018-12-23T14:14:21.650Z,97.70
2018-12-23T14:17:27.296Z,10.17
2018-12-23T14:20:32.953Z,4.57
2018-12-23T14:23:38.615Z,6.43
2018-12-23T14:26:44.356Z,5.47
2018-12-23T14:29:50.008Z,8.33
2018-12-23T14:32:55.656Z,5.10
2018-12-23T14:36:01.311Z,6.97
2018-12-23T14:39:10.239Z,6.10
2018-12-23T14:42:15.890Z,5.47
2018-12-23T14:45:21.539Z,4.40
2018-12-23T14:48:27.235Z,7.57
2018-12-23T14:51:33.469Z,6.10
2018-12-23T14:54:39.144Z,7.43
2018-12-23T14:57:44.922Z,8.47
2018-12-23T15:00:50.575Z,8.40
2018-12-23T15:03:56.265Z,6.03
2018-12-23T15:07:02.037Z,20.37
2018-12-23T15:10:09.016Z,4.17
2018-12-23T15:13:14.730Z,9.33
2018-12-23T15:16:20.385Z,4.53
2018-12-23T15:19:26.073Z,5.70
2018-12-23T15:22:31.794Z,5.87
2018-12-23T15:25:37.603Z,4.80
2018-12-23T15:28:43.284Z,9.03
2018-12-23T15:31:49.021Z,4.30
2018-12-23T15:34:54.711Z,4.77
2018-12-23T15:38:00.437Z,2.97
2018-12-23T15:41:06.221Z,4.40
2018-12-23T15:44:11.949Z,4.53
2018-12-23T15:47:17.624Z,4.43
2018-12-23T15:50:23.307Z,2.03
2018-12-23T15:53:29.015Z,2.70
2018-12-23T15:56:34.751Z,3.60
2018-12-23T15:59:40.502Z,1.53
2018-12-23T16:02:46.197Z,1.90
2018-12-23T16:05:51.886Z,1.70
2018-12-23T16:08:57.561Z,2.30
2018-12-23T16:12:03.227Z,3.33
2018-12-23T16:15:09.055Z,2.37
2018-12-23T16:18:14.695Z,3.03
2018-12-23T16:21:20.365Z,3.47
2018-12-23T16:24:26.042Z,2.60
2018-12-23T16:27:31.692Z,2.37
2018-12-23T16:30:37.621Z,2.33
2018-12-23T16:33:43.362Z,3.30
2018-12-23T16:36:49.012Z,1.80
2018-12-23T16:39:59.584Z,8.07
2018-12-23T16:43:02.061Z,3.07
2018-12-23T16:46:07.719Z,2.23
2018-12-23T16:49:13.374Z,3.33
2018-12-23T16:52:18.999Z,3.10
2018-12-23T16:55:24.766Z,1.93
2018-12-23T16:58:30.486Z,1.90
2018-12-23T17:01:36.124Z,1.57
2018-12-23T17:04:41.773Z,2.00
2018-12-23T17:07:47.426Z,2.50
2018-12-23T17:10:53.081Z,3.87
2018-12-23T17:13:58.718Z,3.83
2018-12-23T17:17:04.394Z,4.30
2018-12-23T17:20:13.848Z,7.30
2018-12-23T17:23:19.520Z,7.57
2018-12-23T17:26:25.192Z,6.87
2018-12-23T17:29:30.856Z,11.43
2018-12-23T17:32:36.488Z,13.27
2018-12-23T17:35:42.140Z,11.57
2018-12-23T17:38:47.838Z,6.47
2018-12-23T17:41:53.489Z,8.07
2018-12-23T17:44:59.280Z,8.80
2018-12-23T17:48:05.023Z,8.23
2018-12-23T17:51:10.795Z,6.63
2018-12-23T17:54:16.490Z,4.77
2018-12-23T17:57:22.148Z,3.70
2018-12-23T18:00:27.939Z,3.77
2018-12-23T18:03:33.597Z,4.13
2018-12-23T18:06:39.740Z,4.20
2018-12-23T18:09:45.389Z,4.43
2018-12-23T18:12:51.563Z,4.10
2018-12-23T18:15:57.179Z,4.53
2018-12-23T18:19:02.827Z,14.13
2018-12-23T18:22:08.501Z,13.63
2018-12-23T18:25:14.211Z,16.83
2018-12-23T18:28:19.887Z,26.30
2018-12-23T18:31:25.550Z,26.10
2018-12-23T18:34:31.190Z,20.87
2018-12-23T18:37:36.880Z,11.30
2018-12-23T18:40:42.607Z,18.37
2018-12-23T18:43:48.265Z,22.73
2018-12-23T18:46:53.879Z,16.70
2018-12-23T18:49:59.518Z,14.67
2018-12-23T18:53:05.214Z,20.00
2018-12-23T18:56:10.903Z,23.23
2018-12-23T18:59:20.005Z,18.73
2018-12-23T19:02:56.257Z,16.03
2018-12-23T19:06:02.435Z,15.90
2018-12-23T19:09:38.366Z,12.67
2018-12-23T19:13:40.338Z,21.97
2018-12-23T19:17:12.215Z,11.77
2018-12-23T19:21:16.094Z,10.93
2018-12-23T19:25:16.426Z,9.07
2018-12-23T19:29:39.989Z,9.00
2018-12-23T19:33:22.754Z,6.63
2018-12-23T19:37:28.428Z,11.60
2018-12-23T19:41:27.327Z,6.77
2018-12-23T19:45:52.029Z,7.30
2018-12-23T19:49:51.555Z,9.10
2018-12-23T19:53:46.140Z,13.23
2018-12-23T19:57:22.203Z,12.17
2018-12-23T20:01:26.302Z,11.67
2018-12-23T20:05:23.805Z,12.47
2018-12-23T20:09:17.190Z,8.63
2018-12-23T20:13:34.573Z,8.73
2018-12-23T20:17:39.130Z,8.93
2018-12-23T20:21:23.194Z,8.70
2018-12-23T20:25:30.491Z,8.13
2018-12-23T20:29:30.488Z,9.00
2018-12-23T20:33:02.753Z,8.10
2018-12-23T20:37:04.837Z,7.67
2018-12-23T20:41:17.431Z,7.57
2018-12-23T20:45:20.323Z,8.00
2018-12-23T20:49:20.279Z,8.60
2018-12-23T20:53:24.367Z,7.50
2018-12-23T20:57:25.350Z,8.37
2018-12-23T21:01:26.021Z,8.60
2018-12-23T21:05:35.027Z,8.53
2018-12-23T21:09:36.461Z,8.33
2018-12-23T21:13:48.613Z,6.70
2018-12-23T21:17:51.464Z,6.67
2018-12-23T21:22:02.261Z,7.20
2018-12-23T21:25:54.823Z,7.30
2018-12-23T21:29:46.950Z,6.93
2018-12-23T21:33:46.733Z,6.07
2018-12-23T21:37:58.041Z,7.40
2018-12-23T21:42:08.138Z,7.03
2018-12-23T21:46:33.083Z,7.57
2018-12-23T21:50:25.950Z,6.97
2018-12-23T21:54:38.782Z,6.57
2018-12-23T21:58:42.603Z,7.60
2018-12-23T22:02:55.990Z,18.63
2018-12-23T22:06:22.317Z,56.47
2018-12-23T22:10:18.893Z,45.20
2018-12-23T22:13:26.072Z,27.33
2018-12-23T22:16:31.775Z,34.57
2018-12-23T22:19:37.423Z,32.83
2018-12-23T22:22:43.089Z,23.70
2018-12-23T22:25:49.681Z,25.57
2018-12-23T22:28:55.341Z,27.27
2018-12-23T22:32:01.016Z,25.37
2018-12-23T22:35:06.916Z,23.53
2018-12-23T22:38:12.572Z,23.67
2018-12-23T22:41:23.958Z,20.67
2018-12-23T22:44:29.638Z,23.07
2018-12-23T22:47:35.290Z,17.47
2018-12-23T22:50:40.957Z,22.40
2018-12-23T22:53:47.220Z,13.70
2018-12-23T22:56:52.991Z,14.57
2018-12-23T22:59:58.700Z,11.97
2018-12-23T23:03:08.893Z,14.43
2018-12-23T23:06:11.831Z,16.03
2018-12-23T23:09:17.477Z,12.80
2018-12-23T23:12:23.129Z,9.70
2018-12-23T23:15:28.794Z,9.93
2018-12-23T23:18:34.480Z,8.53
2018-12-23T23:21:40.156Z,8.03
2018-12-23T23:24:45.832Z,9.93
2018-12-23T23:27:51.474Z,8.17
2018-12-23T23:30:57.138Z,8.60
2018-12-23T23:34:02.826Z,8.47
2018-12-23T23:37:08.533Z,7.40
2018-12-23T23:40:14.347Z,7.07
2018-12-23T23:43:20.855Z,6.50
2018-12-23T23:46:26.629Z,6.33
2018-12-23T23:49:32.254Z,5.80
2018-12-23T23:52:37.914Z,6.13
2018-12-23T23:55:43.571Z,5.77
2018-12-23T23:58:49.220Z,6.23
